sensor_id;sensor_type;location;lat;lon;timestamp;pressure;altitude;pressure_sealevel;temperature;humidity
75438;BME280;64015;49.392;15.582;2023-06-01T00:00:33;96010.69;;;9.45;100.00
75438;BME280;64015;49.392;15.582;2023-06-01T00:03:19;96008.00;;;9.40;100.00
75438;BME280;64015;49.392;15.582;2023-06-01T00:05:45;96008.22;;;9.33;100.00
75438;BME280;64015;49.392;15.582;2023-06-01T00:08:10;96012.66;;;9.28;100.00
75438;BME280;64015;49.392;15.582;2023-06-01T00:10:36;96010.00;;;9.28;100.00
75438;BME280;64015;49.392;15.582;2023-06-01T00:13:02;96013.69;;;9.27;100.00
75438;BME280;64015;49.392;15.582;2023-06-01T00:15:28;96007.91;;;9.25;100.00
75438;BME280;64015;49.392;15.582;2023-06-01T00:17:53;96014.47;;;9.27;100.00
75438;BME280;64015;49.392;15.582;2023-06-01T00:20:19;96017.13;;;9.27;100.00
75438;BME280;64015;49.392;15.582;2023-06-01T00:22:45;96013.16;;;9.25;100.00
75438;BME280;64015;49.392;15.582;2023-06-01T00:25:10;96007.91;;;9.25;100.00
75438;BME280;64015;49.392;15.582;2023-06-01T00:27:36;96013.66;;;9.22;100.00
75438;BME280;64015;49.392;15.582;2023-06-01T00:30:02;96008.31;;;9.12;100.00
75438;BME280;64015;49.392;15.582;2023-06-01T00:32:28;96012.22;;;9.04;99.71
75438;BME280;64015;49.392;15.582;2023-06-01T00:35:12;96006.06;;;8.93;100.00
75438;BME280;64015;49.392;15.582;2023-06-01T00:37:38;96003.41;;;8.88;100.00
75438;BME280;64015;49.392;15.582;2023-06-01T00:40:04;96000.72;;;8.83;100.00
75438;BME280;64015;49.392;15.582;2023-06-01T00:42:30;95999.88;;;8.78;100.00
75438;BME280;64015;49.392;15.582;2023-06-01T00:44:55;96004.00;;;8.69;100.00
75438;BME280;64015;49.392;15.582;2023-06-01T00:47:24;95999.72;;;8.63;100.00
75438;BME280;64015;49.392;15.582;2023-06-01T00:49:49;95996.50;;;8.55;100.00
75438;BME280;64015;49.392;15.582;2023-06-01T00:52:16;95993.88;;;8.55;100.00
75438;BME280;64015;49.392;15.582;2023-06-01T00:54:42;95992.47;;;8.43;100.00
75438;BME280;64015;49.392;15.582;2023-06-01T00:57:08;95993.66;;;8.35;100.00
75438;BME280;64015;49.392;15.582;2023-06-01T00:59:34;95985.72;;;8.30;100.00
75438;BME280;64015;49.392;15.582;2023-06-01T01:02:00;95988.00;;;8.21;100.00
75438;BME280;64015;49.392;15.582;2023-06-01T01:04:29;95981.50;;;8.29;100.00
75438;BME280;64015;49.392;15.582;2023-06-01T01:09:40;95986.56;;;8.36;100.00
75438;BME280;64015;49.392;15.582;2023-06-01T01:12:21;95977.75;;;8.25;100.00
75438;BME280;64015;49.392;15.582;2023-06-01T01:14:56;95979.00;;;8.17;100.00
75438;BME280;64015;49.392;15.582;2023-06-01T01:17:30;95973.50;;;8.19;100.00
75438;BME280;64015;49.392;15.582;2023-06-01T01:20:13;95981.63;;;8.17;100.00
75438;BME280;64015;49.392;15.582;2023-06-01T01:31:13;95976.84;;;7.88;100.00
75438;BME280;64015;49.392;15.582;2023-06-01T01:33:41;95985.91;;;7.80;100.00
75438;BME280;64015;49.392;15.582;2023-06-01T01:36:07;95977.00;;;7.81;100.00
75438;BME280;64015;49.392;15.582;2023-06-01T01:38:34;95976.44;;;7.79;100.00
75438;BME280;64015;49.392;15.582;2023-06-01T01:41:01;95986.94;;;7.79;100.00
75438;BME280;64015;49.392;15.582;2023-06-01T01:43:27;95974.88;;;7.78;100.00
75438;BME280;64015;49.392;15.582;2023-06-01T01:46:07;95977.97;;;7.75;100.00
75438;BME280;64015;49.392;15.582;2023-06-01T01:48:45;95970.94;;;7.80;100.00
75438;BME280;64015;49.392;15.582;2023-06-01T01:51:20;95974.44;;;7.86;100.00
75438;BME280;64015;49.392;15.582;2023-06-01T01:53:50;95972.84;;;7.85;100.00
75438;BME280;64015;49.392;15.582;2023-06-01T01:56:18;95967.38;;;7.86;100.00
75438;BME280;64015;49.392;15.582;2023-06-01T01:58:45;95966.72;;;7.79;100.00
75438;BME280;64015;49.392;15.582;2023-06-01T02:01:12;95967.81;;;7.62;100.00
75438;BME280;64015;49.392;15.582;2023-06-01T02:03:38;95962.03;;;7.60;100.00
75438;BME280;64015;49.392;15.582;2023-06-01T02:06:04;95961.72;;;7.56;100.00
75438;BME280;64015;49.392;15.582;2023-06-01T02:08:30;95960.88;;;7.51;100.00
75438;BME280;64015;49.392;15.582;2023-06-01T02:10:56;95954.59;;;7.35;100.00
75438;BME280;64015;49.392;15.582;2023-06-01T02:13:22;95962.34;;;7.25;100.00
75438;BME280;64015;49.392;15.582;2023-06-01T02:15:47;95945.09;;;7.29;100.00
75438;BME280;64015;49.392;15.582;2023-06-01T02:18:13;95946.97;;;7.33;100.00
75438;BME280;64015;49.392;15.582;2023-06-01T02:20:41;95947.38;;;7.25;100.00
75438;BME280;64015;49.392;15.582;2023-06-01T02:23:07;95947.81;;;7.17;100.00
75438;BME280;64015;49.392;15.582;2023-06-01T02:25:32;95947.09;;;7.22;100.00
75438;BME280;64015;49.392;15.582;2023-06-01T02:27:58;95950.38;;;7.12;100.00
75438;BME280;64015;49.392;15.582;2023-06-01T02:30:23;95947.72;;;6.95;100.00
75438;BME280;64015;49.392;15.582;2023-06-01T02:32:49;95949.19;;;7.03;100.00
75438;BME280;64015;49.392;15.582;2023-06-01T02:35:15;95943.44;;;7.06;100.00
75438;BME280;64015;49.392;15.582;2023-06-01T02:37:40;95947.75;;;7.12;100.00
75438;BME280;64015;49.392;15.582;2023-06-01T02:40:07;95943.03;;;7.14;100.00
75438;BME280;64015;49.392;15.582;2023-06-01T02:42:37;95945.19;;;7.17;100.00
75438;BME280;64015;49.392;15.582;2023-06-01T02:45:05;95949.81;;;7.10;100.00
75438;BME280;64015;49.392;15.582;2023-06-01T02:47:31;95946.06;;;7.06;100.00
75438;BME280;64015;49.392;15.582;2023-06-01T02:49:57;95943.84;;;6.98;100.00
75438;BME280;64015;49.392;15.582;2023-06-01T02:52:23;95945.84;;;6.91;100.00
75438;BME280;64015;49.392;15.582;2023-06-01T02:54:48;95936.84;;;6.87;100.00
75438;BME280;64015;49.392;15.582;2023-06-01T02:57:14;95932.34;;;6.82;100.00
75438;BME280;64015;49.392;15.582;2023-06-01T02:59:39;95937.50;;;6.77;100.00
75438;BME280;64015;49.392;15.582;2023-06-01T03:02:06;95924.38;;;6.77;100.00
75438;BME280;64015;49.392;15.582;2023-06-01T03:04:32;95926.78;;;6.79;100.00
75438;BME280;64015;49.392;15.582;2023-06-01T03:06:58;95929.47;;;6.84;100.00
75438;BME280;64015;49.392;15.582;2023-06-01T03:09:24;95928.19;;;6.86;100.00
75438;BME280;64015;49.392;15.582;2023-06-01T03:11:50;95933.19;;;6.88;100.00
75438;BME280;64015;49.392;15.582;2023-06-01T03:14:16;95930.56;;;6.88;100.00
75438;BME280;64015;49.392;15.582;2023-06-01T03:16:41;95929.31;;;6.90;100.00
75438;BME280;64015;49.392;15.582;2023-06-01T03:19:07;95931.13;;;6.90;100.00
75438;BME280;64015;49.392;15.582;2023-06-01T03:21:33;95931.53;;;6.82;100.00
75438;BME280;64015;49.392;15.582;2023-06-01T03:23:59;95932.09;;;6.84;100.00
75438;BME280;64015;49.392;15.582;2023-06-01T03:26:25;95925.84;;;6.85;100.00
75438;BME280;64015;49.392;15.582;2023-06-01T03:28:50;95942.03;;;6.82;100.00
75438;BME280;64015;49.392;15.582;2023-06-01T03:31:35;95932.09;;;6.84;100.00
75438;BME280;64015;49.392;15.582;2023-06-01T03:34:01;95918.34;;;6.77;100.00
75438;BME280;64015;49.392;15.582;2023-06-01T03:36:27;95934.16;;;6.82;100.00
75438;BME280;64015;49.392;15.582;2023-06-01T03:38:53;95935.28;;;6.86;100.00
75438;BME280;64015;49.392;15.582;2023-06-01T03:41:19;95934.78;;;6.89;100.00
75438;BME280;64015;49.392;15.582;2023-06-01T03:43:45;95939.09;;;6.95;100.00
75438;BME280;64015;49.392;15.582;2023-06-01T03:46:11;95933.91;;;7.00;100.00
75438;BME280;64015;49.392;15.582;2023-06-01T03:48:36;95936.13;;;7.08;100.00
75438;BME280;64015;49.392;15.582;2023-06-01T03:51:02;95936.13;;;7.08;100.00
75438;BME280;64015;49.392;15.582;2023-06-01T03:53:28;95938.84;;;7.13;100.00
75438;BME280;64015;49.392;15.582;2023-06-01T03:55:56;95936.28;;;7.18;100.00
75438;BME280;64015;49.392;15.582;2023-06-01T03:58:22;95934.50;;;7.24;100.00
75438;BME280;64015;49.392;15.582;2023-06-01T04:00:49;95936.47;;;7.33;100.00
75438;BME280;64015;49.392;15.582;2023-06-01T04:03:15;95936.56;;;7.38;100.00
75438;BME280;64015;49.392;15.582;2023-06-01T04:05:41;95936.69;;;7.48;100.00
75438;BME280;64015;49.392;15.582;2023-06-01T04:08:07;95931.81;;;7.57;100.00
75438;BME280;64015;49.392;15.582;2023-06-01T04:10:34;95937.91;;;7.63;100.00
75438;BME280;64015;49.392;15.582;2023-06-01T04:13:00;95932.00;;;7.72;100.00
75438;BME280;64015;49.392;15.582;2023-06-01T04:15:25;95933.16;;;7.81;100.00
75438;BME280;64015;49.392;15.582;2023-06-01T04:17:51;95928.44;;;7.83;100.00
75438;BME280;64015;49.392;15.582;2023-06-01T04:20:17;95932.59;;;8.01;100.00
75438;BME280;64015;49.392;15.582;2023-06-01T04:22:44;95933.41;;;8.07;100.00
75438;BME280;64015;49.392;15.582;2023-06-01T04:25:13;95924.81;;;8.11;100.00
75438;BME280;64015;49.392;15.582;2023-06-01T04:27:44;95924.91;;;8.21;100.00
75438;BME280;64015;49.392;15.582;2023-06-01T04:30:11;95930.31;;;8.32;100.00
75438;BME280;64015;49.392;15.582;2023-06-01T04:32:38;95927.22;;;8.40;100.00
75438;BME280;64015;49.392;15.582;2023-06-01T04:35:04;95924.16;;;8.48;100.00
75438;BME280;64015;49.392;15.582;2023-06-01T04:37:34;95921.84;;;8.56;100.00
75438;BME280;64015;49.392;15.582;2023-06-01T04:40:01;95924.03;;;8.65;100.00
75438;BME280;64015;49.392;15.582;2023-06-01T04:42:31;95918.06;;;8.74;100.00
75438;BME280;64015;49.392;15.582;2023-06-01T04:44:58;95918.19;;;8.89;100.00
75438;BME280;64015;49.392;15.582;2023-06-01T04:47:23;95916.38;;;9.00;100.00
75438;BME280;64015;49.392;15.582;2023-06-01T04:49:49;95922.56;;;9.16;100.00
75438;BME280;64015;49.392;15.582;2023-06-01T04:52:15;95916.59;;;9.30;100.00
75438;BME280;64015;49.392;15.582;2023-06-01T04:54:41;95921.09;;;9.35;100.00
75438;BME280;64015;49.392;15.582;2023-06-01T04:57:07;95909.84;;;9.50;100.00
75438;BME280;64015;49.392;15.582;2023-06-01T04:59:33;95907.50;;;9.58;100.00
75438;BME280;64015;49.392;15.582;2023-06-01T05:02:00;95913.06;;;9.67;100.00
75438;BME280;64015;49.392;15.582;2023-06-01T05:04:26;95909.69;;;9.77;100.00
75438;BME280;64015;49.392;15.582;2023-06-01T05:06:51;95908.69;;;9.93;100.00
75438;BME280;64015;49.392;15.582;2023-06-01T05:09:17;95909.25;;;10.05;100.00
75438;BME280;64015;49.392;15.582;2023-06-01T05:11:44;95908.25;;;10.16;100.00
75438;BME280;64015;49.392;15.582;2023-06-01T05:14:10;95901.94;;;10.22;100.00
75438;BME280;64015;49.392;15.582;2023-06-01T05:16:35;95904.09;;;10.40;100.00
75438;BME280;64015;49.392;15.582;2023-06-01T05:19:01;95906.75;;;10.61;100.00
75438;BME280;64015;49.392;15.582;2023-06-01T05:21:27;95908.88;;;10.74;99.98
75438;BME280;64015;49.392;15.582;2023-06-01T05:23:53;95900.66;;;10.96;99.43
75438;BME280;64015;49.392;15.582;2023-06-01T05:26:19;95896.16;;;11.06;98.44
75438;BME280;64015;49.392;15.582;2023-06-01T05:28:47;95899.81;;;11.26;97.57
75438;BME280;64015;49.392;15.582;2023-06-01T05:31:13;95902.41;;;11.41;97.19
75438;BME280;64015;49.392;15.582;2023-06-01T05:33:39;95896.31;;;11.50;97.48
75438;BME280;64015;49.392;15.582;2023-06-01T05:36:05;95898.13;;;11.60;96.19
75438;BME280;64015;49.392;15.582;2023-06-01T05:38:32;95899.16;;;11.74;95.97
75438;BME280;64015;49.392;15.582;2023-06-01T05:40:57;95899.63;;;11.86;94.05
75438;BME280;64015;49.392;15.582;2023-06-01T05:43:23;95893.00;;;11.94;93.88
75438;BME280;64015;49.392;15.582;2023-06-01T05:45:48;95894.25;;;12.07;93.10
75438;BME280;64015;49.392;15.582;2023-06-01T05:48:14;95888.00;;;12.37;92.02
75438;BME280;64015;49.392;15.582;2023-06-01T05:50:43;95888.19;;;12.50;90.47
75438;BME280;64015;49.392;15.582;2023-06-01T05:53:09;95890.66;;;12.70;88.73
75438;BME280;64015;49.392;15.582;2023-06-01T05:55:35;95886.34;;;12.80;88.97
75438;BME280;64015;49.392;15.582;2023-06-01T05:58:01;95890.31;;;13.11;87.93
75438;BME280;64015;49.392;15.582;2023-06-01T06:00:27;95887.84;;;13.49;86.33
75438;BME280;64015;49.392;15.582;2023-06-01T06:02:53;95890.31;;;13.64;85.26
75438;BME280;64015;49.392;15.582;2023-06-01T06:05:18;95881.66;;;13.77;85.16
75438;BME280;64015;49.392;15.582;2023-06-01T06:07:44;95885.19;;;13.91;85.07
75438;BME280;64015;49.392;15.582;2023-06-01T06:10:12;95878.03;;;14.10;84.34
75438;BME280;64015;49.392;15.582;2023-06-01T06:12:39;95888.19;;;14.27;83.11
75438;BME280;64015;49.392;15.582;2023-06-01T06:15:05;95885.34;;;14.37;83.80
75438;BME280;64015;49.392;15.582;2023-06-01T06:17:31;95888.47;;;14.63;84.74
75438;BME280;64015;49.392;15.582;2023-06-01T06:19:57;95879.19;;;14.79;83.77
75438;BME280;64015;49.392;15.582;2023-06-01T06:22:23;95882.66;;;14.93;83.40
75438;BME280;64015;49.392;15.582;2023-06-01T06:24:48;95892.75;;;15.10;82.10
75438;BME280;64015;49.392;15.582;2023-06-01T06:27:15;95887.38;;;15.29;80.58
75438;BME280;64015;49.392;15.582;2023-06-01T06:29:41;95881.19;;;15.47;80.69
75438;BME280;64015;49.392;15.582;2023-06-01T06:32:07;95887.31;;;15.61;78.04
75438;BME280;64015;49.392;15.582;2023-06-01T06:34:33;95877.56;;;15.84;77.25
75438;BME280;64015;49.392;15.582;2023-06-01T06:37:03;95881.78;;;15.99;78.63
75438;BME280;64015;49.392;15.582;2023-06-01T06:39:29;95881.94;;;16.16;76.82
75438;BME280;64015;49.392;15.582;2023-06-01T06:41:55;95877.97;;;16.27;75.92
75438;BME280;64015;49.392;15.582;2023-06-01T06:44:20;95877.81;;;16.46;75.64
75438;BME280;64015;49.392;15.582;2023-06-01T06:46:46;95868.91;;;16.51;75.86
75438;BME280;64015;49.392;15.582;2023-06-01T06:49:12;95875.00;;;16.65;76.27
75438;BME280;64015;49.392;15.582;2023-06-01T06:51:38;95872.09;;;16.75;75.56
75438;BME280;64015;49.392;15.582;2023-06-01T06:54:03;95871.28;;;16.97;72.11
75438;BME280;64015;49.392;15.582;2023-06-01T06:56:31;95875.13;;;17.04;70.60
75438;BME280;64015;49.392;15.582;2023-06-01T06:58:56;95872.00;;;17.11;71.47
75438;BME280;64015;49.392;15.582;2023-06-01T07:01:22;95864.41;;;17.27;71.72
75438;BME280;64015;49.392;15.582;2023-06-01T07:03:51;95871.66;;;17.35;71.70
75438;BME280;64015;49.392;15.582;2023-06-01T07:06:17;95870.78;;;17.48;71.19
75438;BME280;64015;49.392;15.582;2023-06-01T07:08:43;95863.94;;;17.64;71.28
75438;BME280;64015;49.392;15.582;2023-06-01T07:11:09;95869.78;;;17.75;72.54
75438;BME280;64015;49.392;15.582;2023-06-01T07:13:35;95863.59;;;17.97;67.82
75438;BME280;64015;49.392;15.582;2023-06-01T07:16:02;95866.75;;;18.16;63.65
75438;BME280;64015;49.392;15.582;2023-06-01T07:18:29;95870.22;;;18.16;63.43
75438;BME280;64015;49.392;15.582;2023-06-01T07:20:57;95874.78;;;18.33;63.38
75438;BME280;64015;49.392;15.582;2023-06-01T07:23:23;95876.50;;;18.38;61.37
75438;BME280;64015;49.392;15.582;2023-06-01T07:25:49;95877.47;;;18.59;60.85
75438;BME280;64015;49.392;15.582;2023-06-01T07:28:14;95867.22;;;18.87;57.50
75438;BME280;64015;49.392;15.582;2023-06-01T07:30:41;95864.38;;;18.92;55.68
75438;BME280;64015;49.392;15.582;2023-06-01T07:33:07;95868.94;;;19.00;55.68
75438;BME280;64015;49.392;15.582;2023-06-01T07:35:33;95878.78;;;19.25;51.68
75438;BME280;64015;49.392;15.582;2023-06-01T07:38:00;95872.63;;;19.33;52.69
75438;BME280;64015;49.392;15.582;2023-06-01T07:40:26;95871.09;;;19.24;50.23
75438;BME280;64015;49.392;15.582;2023-06-01T07:42:51;95874.22;;;19.34;43.29
75438;BME280;64015;49.392;15.582;2023-06-01T07:45:17;95874.63;;;19.54;43.40
75438;BME280;64015;49.392;15.582;2023-06-01T07:47:43;95858.13;;;19.43;41.66
75438;BME280;64015;49.392;15.582;2023-06-01T07:50:11;95867.06;;;19.56;43.16
75438;BME280;64015;49.392;15.582;2023-06-01T07:52:37;95863.38;;;19.69;42.68
75438;BME280;64015;49.392;15.582;2023-06-01T07:55:03;95867.78;;;19.73;42.41
75438;BME280;64015;49.392;15.582;2023-06-01T07:57:29;95861.09;;;19.50;41.71
75438;BME280;64015;49.392;15.582;2023-06-01T07:59:54;95863.59;;;19.47;42.52
75438;BME280;64015;49.392;15.582;2023-06-01T08:02:20;95862.84;;;19.46;42.22
75438;BME280;64015;49.392;15.582;2023-06-01T08:04:46;95866.19;;;19.34;40.58
75438;BME280;64015;49.392;15.582;2023-06-01T08:07:12;95855.50;;;19.26;40.84
75438;BME280;64015;49.392;15.582;2023-06-01T08:09:40;95861.91;;;19.42;42.67
75438;BME280;64015;49.392;15.582;2023-06-01T08:12:08;95866.16;;;19.52;40.86
75438;BME280;64015;49.392;15.582;2023-06-01T08:14:34;95864.50;;;19.68;42.60
75438;BME280;64015;49.392;15.582;2023-06-01T08:17:01;95861.50;;;19.69;42.10
75438;BME280;64015;49.392;15.582;2023-06-01T08:19:28;95853.16;;;20.00;41.51
75438;BME280;64015;49.392;15.582;2023-06-01T08:21:53;95849.59;;;20.38;43.84
75438;BME280;64015;49.392;15.582;2023-06-01T08:24:20;95852.31;;;20.71;41.88
75438;BME280;64015;49.392;15.582;2023-06-01T08:26:54;95850.31;;;21.01;42.38
75438;BME280;64015;49.392;15.582;2023-06-01T08:29:20;95848.50;;;20.93;38.96
75438;BME280;64015;49.392;15.582;2023-06-01T08:31:45;95848.03;;;20.91;40.09
75438;BME280;64015;49.392;15.582;2023-06-01T08:34:11;95853.63;;;21.18;41.49
75438;BME280;64015;49.392;15.582;2023-06-01T08:36:37;95854.75;;;21.42;41.44
75438;BME280;64015;49.392;15.582;2023-06-01T08:39:22;95842.56;;;21.69;39.94
75438;BME280;64015;49.392;15.582;2023-06-01T08:42:07;95845.97;;;21.78;38.01
75438;BME280;64015;49.392;15.582;2023-06-01T08:44:39;95846.38;;;21.80;38.51
75438;BME280;64015;49.392;15.582;2023-06-01T08:47:08;95847.63;;;21.70;37.56
75438;BME280;64015;49.392;15.582;2023-06-01T08:49:58;95846.38;;;21.43;40.76
75438;BME280;64015;49.392;15.582;2023-06-01T08:52:25;95832.97;;;21.43;38.23
75438;BME280;64015;49.392;15.582;2023-06-01T08:54:53;95839.78;;;21.53;39.76
75438;BME280;64015;49.392;15.582;2023-06-01T08:57:20;95837.22;;;21.44;39.88
75438;BME280;64015;49.392;15.582;2023-06-01T08:59:46;95829.38;;;21.64;38.52
75438;BME280;64015;49.392;15.582;2023-06-01T09:02:13;95830.59;;;21.17;37.54
75438;BME280;64015;49.392;15.582;2023-06-01T09:04:40;95829.31;;;21.15;38.45
75438;BME280;64015;49.392;15.582;2023-06-01T09:07:08;95820.00;;;21.45;38.99
75438;BME280;64015;49.392;15.582;2023-06-01T09:09:33;95810.94;;;21.62;39.20
75438;BME280;64015;49.392;15.582;2023-06-01T09:12:38;95813.91;;;21.97;39.84
75438;BME280;64015;49.392;15.582;2023-06-01T09:15:07;95801.06;;;21.90;40.27
75438;BME280;64015;49.392;15.582;2023-06-01T09:17:33;95790.34;;;21.54;40.37
75438;BME280;64015;49.392;15.582;2023-06-01T09:20:00;95806.66;;;21.25;39.96
75438;BME280;64015;49.392;15.582;2023-06-01T09:22:45;95804.66;;;21.21;40.37
75438;BME280;64015;49.392;15.582;2023-06-01T09:25:11;95808.16;;;21.46;40.07
75438;BME280;64015;49.392;15.582;2023-06-01T09:28:00;95803.09;;;21.33;38.50
75438;BME280;64015;49.392;15.582;2023-06-01T09:30:37;95803.13;;;21.57;39.16
75438;BME280;64015;49.392;15.582;2023-06-01T09:35:41;95807.69;;;21.81;38.21
75438;BME280;64015;49.392;15.582;2023-06-01T09:38:07;95798.38;;;21.90;38.62
75438;BME280;64015;49.392;15.582;2023-06-01T09:40:33;95813.72;;;21.90;37.63
75438;BME280;64015;49.392;15.582;2023-06-01T09:43:02;95797.59;;;22.02;37.68
75438;BME280;64015;49.392;15.582;2023-06-01T09:45:30;95796.56;;;22.19;40.80
75438;BME280;64015;49.392;15.582;2023-06-01T09:48:15;95802.16;;;22.54;37.80
75438;BME280;64015;49.392;15.582;2023-06-01T09:50:41;95794.03;;;22.66;36.74
75438;BME280;64015;49.392;15.582;2023-06-01T09:53:08;95798.63;;;22.93;34.44
75438;BME280;64015;49.392;15.582;2023-06-01T09:55:33;95800.75;;;23.16;37.99
75438;BME280;64015;49.392;15.582;2023-06-01T09:58:22;95806.63;;;23.37;36.53
75438;BME280;64015;49.392;15.582;2023-06-01T10:00:50;95800.53;;;23.08;36.00
75438;BME280;64015;49.392;15.582;2023-06-01T10:03:17;95799.34;;;23.22;36.37
75438;BME280;64015;49.392;15.582;2023-06-01T10:05:44;95788.31;;;23.11;33.31
75438;BME280;64015;49.392;15.582;2023-06-01T10:08:11;95798.41;;;23.30;35.10
75438;BME280;64015;49.392;15.582;2023-06-01T10:10:38;95790.66;;;23.75;36.13
75438;BME280;64015;49.392;15.582;2023-06-01T10:13:04;95789.25;;;24.16;33.40
75438;BME280;64015;49.392;15.582;2023-06-01T10:15:32;95787.88;;;24.07;32.63
75438;BME280;64015;49.392;15.582;2023-06-01T10:17:59;95783.50;;;23.99;30.94
75438;BME280;64015;49.392;15.582;2023-06-01T10:20:25;95783.88;;;24.01;30.47
75438;BME280;64015;49.392;15.582;2023-06-01T10:22:52;95780.72;;;24.14;31.67
75438;BME280;64015;49.392;15.582;2023-06-01T10:25:21;95775.72;;;24.32;31.11
75438;BME280;64015;49.392;15.582;2023-06-01T10:27:56;95784.25;;;24.34;30.90
75438;BME280;64015;49.392;15.582;2023-06-01T10:30:23;95774.88;;;24.47;33.11
75438;BME280;64015;49.392;15.582;2023-06-01T10:32:49;95774.31;;;24.38;32.18
75438;BME280;64015;49.392;15.582;2023-06-01T10:40:44;95772.28;;;24.93;32.46
75438;BME280;64015;49.392;15.582;2023-06-01T10:46:01;95763.31;;;25.08;31.15
75438;BME280;64015;49.392;15.582;2023-06-01T10:48:56;95764.81;;;25.06;31.16
75438;BME280;64015;49.392;15.582;2023-06-01T10:51:31;95758.88;;;25.19;31.36
75438;BME280;64015;49.392;15.582;2023-06-01T10:54:23;95763.75;;;24.91;31.96
75438;BME280;64015;49.392;15.582;2023-06-01T10:57:23;95766.97;;;25.19;33.00
75438;BME280;64015;49.392;15.582;2023-06-01T11:08:06;95762.06;;;25.74;29.89
75438;BME280;64015;49.392;15.582;2023-06-01T11:13:21;95762.94;;;25.82;31.50
75438;BME280;64015;49.392;15.582;2023-06-01T11:18:50;95764.75;;;26.64;30.69
75438;BME280;64015;49.392;15.582;2023-06-01T11:21:25;95756.03;;;27.18;29.08
75438;BME280;64015;49.392;15.582;2023-06-01T11:23:52;95754.13;;;26.45;27.78
75438;BME280;64015;49.392;15.582;2023-06-01T11:26:21;95746.41;;;26.47;27.91
75438;BME280;64015;49.392;15.582;2023-06-01T11:28:51;95746.41;;;27.72;28.82
75438;BME280;64015;49.392;15.582;2023-06-01T11:31:18;95748.88;;;27.95;25.21
75438;BME280;64015;49.392;15.582;2023-06-01T11:33:49;95734.97;;;28.03;25.42
75438;BME280;64015;49.392;15.582;2023-06-01T11:36:22;95740.28;;;27.82;25.82
75438;BME280;64015;49.392;15.582;2023-06-01T11:38:50;95747.06;;;27.55;25.61
75438;BME280;64015;49.392;15.582;2023-06-01T11:41:19;95736.34;;;28.45;25.55
75438;BME280;64015;49.392;15.582;2023-06-01T11:43:54;95734.19;;;29.25;23.80
75438;BME280;64015;49.392;15.582;2023-06-01T11:46:20;95728.81;;;28.06;24.12
75438;BME280;64015;49.392;15.582;2023-06-01T11:49:03;95729.56;;;28.03;26.17
75438;BME280;64015;49.392;15.582;2023-06-01T11:51:38;95730.50;;;28.36;25.00
75438;BME280;64015;49.392;15.582;2023-06-01T11:54:04;95731.97;;;28.19;25.97
75438;BME280;64015;49.392;15.582;2023-06-01T11:56:33;95721.66;;;28.74;24.25
75438;BME280;64015;49.392;15.582;2023-06-01T11:59:00;95711.31;;;29.37;25.34
75438;BME280;64015;49.392;15.582;2023-06-01T12:01:27;95710.06;;;29.84;23.72
75438;BME280;64015;49.392;15.582;2023-06-01T12:03:54;95703.22;;;30.56;24.19
75438;BME280;64015;49.392;15.582;2023-06-01T12:06:24;95703.97;;;30.60;23.61
75438;BME280;64015;49.392;15.582;2023-06-01T12:08:54;95699.03;;;30.33;23.45
75438;BME280;64015;49.392;15.582;2023-06-01T12:11:24;95708.06;;;30.89;23.85
75438;BME280;64015;49.392;15.582;2023-06-01T12:13:56;95695.41;;;31.61;23.16
75438;BME280;64015;49.392;15.582;2023-06-01T12:16:24;95686.91;;;31.97;22.36
75438;BME280;64015;49.392;15.582;2023-06-01T12:18:51;95686.06;;;30.59;22.28
75438;BME280;64015;49.392;15.582;2023-06-01T12:21:17;95693.09;;;30.56;23.63
75438;BME280;64015;49.392;15.582;2023-06-01T12:23:48;95681.09;;;31.05;22.61
75438;BME280;64015;49.392;15.582;2023-06-01T12:26:14;95693.69;;;31.37;21.90
75438;BME280;64015;49.392;15.582;2023-06-01T12:28:53;95688.22;;;31.81;21.14
75438;BME280;64015;49.392;15.582;2023-06-01T12:31:20;95681.00;;;31.98;21.26
75438;BME280;64015;49.392;15.582;2023-06-01T12:33:47;95680.69;;;32.87;20.34
75438;BME280;64015;49.392;15.582;2023-06-01T12:36:31;95672.88;;;32.29;20.06
75438;BME280;64015;49.392;15.582;2023-06-01T12:38:58;95670.53;;;32.88;19.98
75438;BME280;64015;49.392;15.582;2023-06-01T12:41:25;95671.66;;;32.33;20.33
75438;BME280;64015;49.392;15.582;2023-06-01T12:43:51;95677.22;;;31.88;22.84
75438;BME280;64015;49.392;15.582;2023-06-01T12:46:24;95672.63;;;30.93;23.02
75438;BME280;64015;49.392;15.582;2023-06-01T12:48:51;95666.84;;;32.10;21.81
75438;BME280;64015;49.392;15.582;2023-06-01T12:51:19;95658.72;;;32.37;20.25
75438;BME280;64015;49.392;15.582;2023-06-01T12:53:45;95663.16;;;31.52;21.53
75438;BME280;64015;49.392;15.582;2023-06-01T12:56:11;95660.38;;;31.60;21.24
75438;BME280;64015;49.392;15.582;2023-06-01T12:58:38;95656.72;;;31.36;22.19
75438;BME280;64015;49.392;15.582;2023-06-01T13:01:05;95653.72;;;32.32;21.67
75438;BME280;64015;49.392;15.582;2023-06-01T13:03:31;95653.91;;;32.48;20.79
75438;BME280;64015;49.392;15.582;2023-06-01T13:06:16;95648.56;;;33.85;19.13
75438;BME280;64015;49.392;15.582;2023-06-01T13:08:44;95643.88;;;32.92;19.92
75438;BME280;64015;49.392;15.582;2023-06-01T13:11:09;95649.03;;;31.99;19.56
75438;BME280;64015;49.392;15.582;2023-06-01T13:13:36;95652.94;;;30.71;21.44
75438;BME280;64015;49.392;15.582;2023-06-01T13:16:05;95643.69;;;29.63;23.81
75438;BME280;64015;49.392;15.582;2023-06-01T13:18:32;95649.13;;;29.63;23.61
75438;BME280;64015;49.392;15.582;2023-06-01T13:20:58;95641.41;;;31.04;23.50
75438;BME280;64015;49.392;15.582;2023-06-01T13:23:24;95639.22;;;31.71;22.73
75438;BME280;64015;49.392;15.582;2023-06-01T13:25:49;95639.41;;;32.24;21.70
75438;BME280;64015;49.392;15.582;2023-06-01T13:28:15;95636.75;;;31.83;20.57
75438;BME280;64015;49.392;15.582;2023-06-01T13:30:41;95635.91;;;31.11;21.50